createdAt,value
2023-04-11T00:00:01.446Z,25.40
2023-04-11T00:02:41.910Z,24.88
2023-04-11T00:05:10.036Z,24.90
2023-04-11T00:07:37.162Z,24.27
2023-04-11T00:10:04.631Z,25.40
2023-04-11T00:12:32.314Z,23.33
2023-04-11T00:14:59.437Z,23.52
2023-04-11T00:17:29.046Z,24.00
2023-04-11T00:19:58.000Z,24.07
2023-04-11T00:22:25.335Z,24.40
2023-04-11T00:24:53.328Z,22.80
2023-04-11T00:27:21.924Z,22.73
2023-04-11T00:29:50.612Z,22.90
2023-04-11T00:32:18.828Z,22.35
2023-04-11T00:34:46.251Z,22.50
2023-04-11T00:37:14.509Z,23.52
2023-04-11T00:39:41.714Z,23.42
2023-04-11T00:42:09.334Z,22.88
2023-04-11T00:44:36.668Z,21.40
2023-04-11T00:47:08.567Z,22.67
2023-04-11T00:49:37.272Z,21.60
2023-04-11T00:52:08.538Z,23.17
2023-04-11T00:54:36.987Z,22.05
2023-04-11T00:57:07.506Z,22.48
2023-04-11T00:59:35.876Z,23.38
2023-04-11T01:02:03.326Z,23.55
2023-04-11T01:04:30.915Z,22.08
2023-04-11T01:07:06.472Z,21.63
2023-04-11T01:09:36.459Z,21.92
2023-04-11T01:12:10.073Z,22.20
2023-04-11T01:14:37.236Z,21.98
2023-04-11T01:17:04.815Z,22.17
2023-04-11T01:19:32.330Z,22.92
2023-04-11T01:22:02.521Z,23.08
2023-04-11T01:24:31.091Z,23.60
2023-04-11T01:26:58.405Z,23.88
2023-04-11T01:29:25.711Z,22.55
2023-04-11T01:31:53.135Z,22.77
2023-04-11T01:34:22.974Z,24.70
2023-04-11T01:36:50.128Z,23.58
2023-04-11T01:39:17.579Z,23.70
2023-04-11T01:41:46.145Z,23.02
2023-04-11T01:44:13.885Z,24.10
2023-04-11T01:46:41.244Z,24.08
2023-04-11T01:49:08.568Z,22.40
2023-04-11T01:51:36.489Z,23.33
2023-04-11T01:54:03.897Z,23.17
2023-04-11T01:56:31.676Z,23.20
2023-04-11T01:58:59.444Z,21.52
2023-04-11T02:01:27.129Z,22.00
2023-04-11T02:03:54.545Z,20.50
2023-04-11T02:06:21.983Z,22.60
2023-04-11T02:08:49.320Z,22.60
2023-04-11T02:11:16.682Z,20.85
2023-04-11T02:13:46.121Z,22.20
2023-04-11T02:16:15.559Z,20.80
2023-04-11T02:18:44.341Z,21.08
2023-04-11T02:21:12.594Z,22.92
2023-04-11T02:23:39.923Z,23.02
2023-04-11T02:26:07.281Z,22.20
2023-04-11T02:28:34.593Z,21.48
2023-04-11T02:31:02.989Z,21.05
2023-04-11T02:33:30.460Z,21.50
2023-04-11T02:35:57.837Z,20.42
2023-04-11T02:38:25.703Z,19.85
2023-04-11T02:40:53.006Z,20.25
2023-04-11T02:43:20.335Z,19.35
2023-04-11T02:45:47.916Z,19.40
2023-04-11T02:48:15.792Z,18.73
2023-04-11T02:50:46.016Z,19.33
2023-04-11T02:53:13.249Z,18.83
2023-04-11T02:55:47.024Z,19.02
2023-04-11T02:58:18.166Z,18.48
2023-04-11T03:00:49.854Z,19.35
2023-04-11T03:03:17.484Z,18.98
2023-04-11T03:05:47.630Z,19.70
2023-04-11T03:08:18.770Z,20.20
2023-04-11T03:10:51.747Z,19.88
2023-04-11T03:13:20.300Z,20.02
2023-04-11T03:15:47.580Z,22.48
2023-04-11T03:18:16.156Z,20.08
2023-04-11T03:20:47.159Z,21.40
2023-04-11T03:23:16.185Z,20.88
2023-04-11T03:25:48.300Z,21.67
2023-04-11T03:28:17.717Z,19.63
2023-04-11T03:30:45.151Z,20.80
2023-04-11T03:33:18.117Z,21.25
2023-04-11T03:35:45.317Z,22.20
2023-04-11T03:38:12.602Z,22.38
2023-04-11T03:40:39.658Z,21.80
2023-04-11T03:43:14.090Z,23.27
2023-04-11T03:45:41.284Z,21.13
2023-04-11T03:48:18.105Z,21.35
2023-04-11T03:50:54.047Z,22.67
2023-04-11T03:53:27.988Z,21.08
2023-04-11T03:56:01.637Z,24.63
2023-04-11T03:58:34.622Z,22.15
2023-04-11T04:01:02.858Z,23.15
2023-04-11T04:03:31.082Z,25.20
2023-04-11T04:06:00.143Z,23.45
2023-04-11T04:08:27.754Z,23.45
2023-04-11T04:10:54.847Z,24.60
2023-04-11T04:13:21.916Z,25.05
2023-04-11T04:16:04.721Z,24.75
2023-04-11T04:18:33.032Z,27.00
2023-04-11T04:21:01.045Z,25.60
2023-04-11T04:23:30.105Z,23.75
2023-04-11T04:26:31.439Z,25.90
2023-04-11T04:29:18.293Z,25.35
2023-04-11T04:31:53.220Z,25.05
2023-04-11T04:34:29.381Z,24.45
2023-04-11T04:36:59.800Z,24.80
2023-04-11T04:39:38.296Z,25.38
2023-04-11T04:42:07.689Z,23.27
2023-04-11T04:44:39.125Z,24.33
2023-04-11T04:47:15.703Z,25.83
2023-04-11T04:49:44.078Z,24.30
2023-04-11T04:52:11.620Z,24.52
2023-04-11T04:54:40.132Z,25.08
2023-04-11T04:57:07.730Z,23.92
2023-04-11T04:59:34.840Z,24.73
2023-04-11T05:02:09.912Z,25.00
2023-04-11T05:04:37.283Z,26.95
2023-04-11T05:07:04.585Z,25.42
2023-04-11T05:09:32.482Z,25.95
2023-04-11T05:12:27.532Z,24.92
2023-04-11T05:14:59.561Z,25.73
2023-04-11T05:17:29.871Z,25.90
2023-04-11T05:19:57.626Z,28.42
2023-04-11T05:22:26.050Z,26.08
2023-04-11T05:24:57.136Z,27.63
2023-04-11T05:27:24.205Z,25.98
2023-04-11T05:29:51.685Z,29.17
2023-04-11T05:32:19.418Z,29.58
2023-04-11T05:34:57.286Z,26.77
2023-04-11T05:37:33.998Z,29.75
2023-04-11T05:40:01.166Z,29.83
2023-04-11T05:42:28.278Z,30.88
2023-04-11T05:44:55.538Z,29.30
2023-04-11T05:47:23.891Z,31.55
2023-04-11T05:49:50.957Z,30.23
2023-04-11T05:52:18.040Z,32.70
2023-04-11T05:54:45.094Z,29.25
2023-04-11T05:57:12.071Z,28.70
2023-04-11T05:59:39.145Z,27.60
2023-04-11T06:02:06.911Z,28.65
2023-04-11T06:04:34.196Z,30.02
2023-04-11T06:07:03.926Z,28.42
2023-04-11T06:09:32.721Z,29.45
2023-04-11T06:12:01.563Z,29.50
2023-04-11T06:14:28.591Z,30.50
2023-04-11T06:16:55.782Z,30.38
2023-04-11T06:19:22.838Z,29.77
2023-04-11T06:21:50.024Z,27.65
2023-04-11T06:24:19.983Z,30.25
2023-04-11T06:26:47.072Z,32.33
2023-04-11T06:29:14.154Z,31.88
2023-04-11T06:31:41.851Z,29.83
2023-04-11T06:34:09.154Z,29.05
2023-04-11T06:36:37.371Z,29.50
2023-04-11T06:39:05.909Z,27.55
2023-04-11T06:41:32.921Z,27.58
2023-04-11T06:44:00.126Z,29.73
2023-04-11T06:46:27.390Z,28.85
2023-04-11T06:48:54.575Z,31.25
2023-04-11T06:51:21.664Z,27.60
2023-04-11T06:53:48.703Z,27.25
2023-04-11T06:56:15.690Z,28.70
2023-04-11T06:58:42.937Z,29.55
2023-04-11T07:01:10.170Z,27.60
2023-04-11T07:03:38.193Z,28.90
2023-04-11T07:06:05.606Z,26.63
2023-04-11T07:08:32.714Z,29.15
2023-04-11T07:11:00.022Z,29.33
2023-04-11T07:13:27.103Z,27.70
2023-04-11T07:15:54.444Z,27.10
2023-04-11T07:18:21.594Z,27.38
2023-04-11T07:20:48.774Z,25.65
2023-04-11T07:23:15.928Z,24.40
2023-04-11T07:25:45.082Z,23.95
2023-04-11T07:28:12.231Z,22.17
2023-04-11T07:30:39.542Z,22.17
2023-04-11T07:33:06.589Z,20.95
2023-04-11T07:35:34.932Z,21.13
2023-04-11T07:38:02.174Z,20.40
2023-04-11T07:40:29.323Z,20.70
2023-04-11T07:42:56.433Z,19.98
2023-04-11T07:45:23.661Z,18.40
2023-04-11T07:47:50.781Z,19.10
2023-04-11T07:50:18.047Z,17.92
2023-04-11T07:52:45.053Z,17.85
2023-04-11T07:55:12.214Z,18.38
2023-04-11T07:57:39.501Z,18.48
2023-04-11T08:00:11.520Z,19.35
2023-04-11T08:02:42.064Z,18.77
2023-04-11T08:05:10.178Z,17.58
2023-04-11T08:07:37.388Z,19.15
2023-04-11T08:10:05.648Z,18.13
2023-04-11T08:12:32.929Z,17.35
2023-04-11T08:15:00.919Z,18.27
2023-04-11T08:17:30.747Z,17.83
2023-04-11T08:19:57.903Z,17.25
2023-04-11T08:22:25.065Z,17.88
2023-04-11T08:24:52.616Z,16.92
2023-04-11T08:27:19.793Z,16.20
2023-04-11T08:29:46.956Z,16.42
2023-04-11T08:32:14.099Z,16.33
2023-04-11T08:34:41.258Z,16.42
2023-04-11T08:37:08.343Z,15.70
2023-04-11T08:39:35.579Z,15.70
2023-04-11T08:42:03.339Z,15.18
2023-04-11T08:44:30.395Z,14.98
2023-04-11T08:46:57.430Z,14.75
2023-04-11T08:49:24.681Z,13.88
2023-04-11T08:51:54.188Z,13.55
2023-04-11T08:54:21.285Z,12.13
2023-04-11T08:56:48.310Z,11.88
2023-04-11T08:59:15.926Z,12.57
2023-04-11T09:01:43.086Z,11.50
2023-04-11T09:04:11.582Z,12.73
2023-04-11T09:06:40.442Z,12.68
2023-04-11T09:09:08.837Z,12.27
2023-04-11T09:11:52.703Z,12.57
2023-04-11T09:14:25.021Z,11.85
2023-04-11T09:17:01.895Z,12.02
2023-04-11T09:19:31.689Z,10.18
2023-04-11T09:22:01.176Z,10.52
2023-04-11T09:24:30.153Z,8.97
2023-04-11T09:27:12.093Z,8.57
2023-04-11T09:29:45.638Z,8.60
2023-04-11T09:32:42.993Z,8.48
2023-04-11T09:35:19.921Z,9.07
2023-04-11T09:37:49.681Z,8.68
2023-04-11T09:40:19.032Z,8.93
2023-04-11T09:42:48.236Z,8.77
2023-04-11T09:45:21.238Z,7.95
2023-04-11T09:47:50.262Z,8.45
2023-04-11T09:50:17.814Z,8.38
2023-04-11T09:52:46.278Z,7.50
2023-04-11T09:55:16.572Z,7.75
2023-04-11T09:57:46.284Z,8.30
2023-04-11T10:00:19.629Z,8.02
2023-04-11T10:02:50.128Z,7.93
2023-04-11T10:05:20.400Z,8.02
2023-04-11T10:08:05.885Z,7.25
2023-04-11T10:10:34.046Z,7.50
2023-04-11T10:13:01.515Z,7.03
2023-04-11T10:15:29.197Z,7.30
2023-04-11T10:18:13.002Z,7.07
2023-04-11T10:20:40.600Z,6.78
2023-04-11T10:23:07.804Z,7.20
2023-04-11T10:25:53.046Z,7.10
2023-04-11T10:28:39.931Z,7.28
2023-04-11T10:31:14.470Z,7.00
2023-04-11T10:34:14.654Z,6.90
2023-04-11T10:37:08.058Z,6.93
2023-04-11T10:39:50.578Z,6.50
2023-04-11T10:42:38.215Z,9.05
2023-04-11T10:45:28.860Z,6.72
2023-04-11T10:48:05.705Z,6.63
2023-04-11T10:50:38.055Z,6.25
2023-04-11T10:53:09.795Z,7.35
2023-04-11T10:55:50.777Z,7.30
2023-04-11T10:58:22.599Z,6.68
2023-04-11T11:00:49.970Z,6.70
2023-04-11T11:03:25.638Z,6.90
2023-04-11T11:06:02.525Z,7.38
2023-04-11T11:08:43.229Z,6.70
2023-04-11T11:11:11.647Z,6.95
2023-04-11T11:13:49.349Z,6.30
2023-04-11T11:16:25.057Z,6.78
2023-04-11T11:18:59.428Z,6.50
2023-04-11T11:21:28.804Z,7.00
2023-04-11T11:24:05.346Z,7.70
2023-04-11T11:26:40.022Z,8.40
2023-04-11T11:29:08.285Z,7.10
2023-04-11T11:31:43.256Z,6.45
2023-04-11T11:36:43.583Z,6.28
2023-04-11T11:39:12.010Z,6.85
2023-04-11T11:41:40.883Z,7.28
2023-04-11T11:44:20.859Z,7.20
2023-04-11T11:47:07.179Z,6.38
2023-04-11T11:49:54.504Z,7.38
2023-04-11T11:52:34.712Z,6.95
2023-04-11T11:57:53.894Z,6.95
2023-04-11T12:00:26.180Z,7.50
2023-04-11T12:02:55.334Z,7.28
2023-04-11T12:05:25.165Z,9.32
2023-04-11T12:07:56.576Z,8.60
2023-04-11T12:10:23.923Z,8.02
2023-04-11T12:12:52.887Z,8.65
2023-04-11T12:15:24.299Z,8.13
2023-04-11T12:17:55.316Z,8.07
2023-04-11T12:20:24.192Z,8.98
2023-04-11T12:22:53.613Z,7.88
2023-04-11T12:25:22.481Z,7.85
2023-04-11T12:27:49.598Z,7.40
2023-04-11T12:30:16.992Z,7.45
2023-04-11T12:32:45.570Z,8.25
2023-04-11T12:35:13.439Z,7.70
2023-04-11T12:37:41.351Z,7.45
2023-04-11T12:40:12.851Z,7.55
2023-04-11T12:42:45.703Z,6.80
2023-04-11T12:45:23.300Z,8.68
2023-04-11T12:47:50.624Z,7.95
2023-04-11T12:50:17.714Z,8.60
2023-04-11T12:52:44.812Z,8.25
2023-04-11T12:55:13.537Z,8.98
2023-04-11T12:57:41.707Z,8.40
2023-04-11T13:00:11.603Z,8.55
2023-04-11T13:02:43.956Z,7.72
2023-04-11T13:05:14.702Z,9.73
2023-04-11T13:07:42.842Z,11.32
2023-04-11T13:10:10.955Z,8.95
2023-04-11T13:12:41.834Z,8.50
2023-04-11T13:15:12.394Z,8.73
2023-04-11T13:20:13.260Z,8.95
2023-04-11T13:22:41.996Z,9.27
2023-04-11T13:25:10.931Z,11.82
2023-04-11T13:27:39.837Z,13.20
2023-04-11T13:30:08.233Z,12.68
2023-04-11T13:32:35.482Z,12.82
2023-04-11T13:35:04.075Z,13.65
2023-04-11T13:37:31.270Z,15.23
2023-04-11T13:39:58.410Z,14.48
2023-04-11T13:42:26.227Z,14.80
2023-04-11T13:44:53.920Z,14.93
2023-04-11T13:47:21.141Z,15.68
2023-04-11T13:49:48.405Z,14.40
2023-04-11T13:52:15.720Z,14.05
2023-04-11T13:54:42.861Z,14.43
2023-04-11T13:57:09.927Z,15.02
2023-04-11T13:59:37.015Z,14.30
2023-04-11T14:02:04.229Z,20.00
2023-04-11T14:04:31.537Z,15.27
2023-04-11T14:06:58.700Z,16.60
2023-04-11T14:09:25.982Z,16.83
2023-04-11T14:11:53.085Z,15.02
2023-04-11T14:14:20.131Z,15.98
2023-04-11T14:16:47.308Z,16.95
2023-04-11T14:19:14.699Z,16.13
2023-04-11T14:21:42.023Z,16.33
2023-04-11T14:24:09.727Z,15.80
2023-04-11T14:26:36.717Z,15.73
2023-04-11T14:29:04.572Z,15.70
2023-04-11T14:31:31.984Z,15.52
2023-04-11T14:33:59.482Z,17.17
2023-04-11T14:36:28.180Z,16.77
2023-04-11T14:38:55.492Z,15.05
2023-04-11T14:41:22.614Z,17.23
2023-04-11T14:43:49.644Z,15.75
2023-04-11T14:46:16.725Z,14.07
2023-04-11T14:48:43.856Z,15.18
2023-04-11T14:51:10.852Z,16.02
2023-04-11T14:53:38.047Z,10.15
2023-04-11T14:56:06.691Z,8.65
2023-04-11T14:58:34.232Z,6.40
2023-04-11T15:01:01.391Z,6.57
2023-04-11T15:03:28.636Z,3.30
2023-04-11T15:05:56.079Z,3.90
2023-04-11T15:08:23.134Z,3.17
2023-04-11T15:10:54.383Z,5.50
2023-04-11T15:13:22.667Z,3.67
2023-04-11T15:15:50.104Z,4.45
2023-04-11T15:18:28.165Z,3.97
2023-04-11T15:21:00.007Z,4.72
2023-04-11T15:23:27.230Z,4.38
2023-04-11T15:26:00.035Z,4.20
2023-04-11T15:28:30.995Z,3.80
2023-04-11T15:30:59.299Z,4.70
2023-04-11T15:33:27.890Z,3.78
2023-04-11T15:35:55.397Z,3.60
2023-04-11T15:38:23.333Z,3.78
2023-04-11T15:40:51.564Z,3.90
2023-04-11T15:43:19.185Z,3.65
2023-04-11T15:45:46.592Z,3.90
2023-04-11T15:48:13.964Z,3.90
2023-04-11T15:50:45.213Z,2.90
2023-04-11T15:53:12.878Z,2.58
2023-04-11T15:55:43.933Z,2.83
2023-04-11T15:58:11.355Z,2.28
2023-04-11T16:00:39.781Z,2.10
2023-04-11T16:03:08.677Z,1.70
2023-04-11T16:05:41.016Z,2.00
2023-04-11T16:08:09.421Z,2.20
2023-04-11T16:10:37.064Z,2.63
2023-04-11T16:13:04.245Z,3.15
2023-04-11T16:15:32.320Z,2.72
2023-04-11T16:17:59.567Z,1.60
2023-04-11T16:20:26.574Z,1.13
2023-04-11T16:22:53.773Z,2.05
2023-04-11T16:25:21.535Z,3.95
2023-04-11T16:27:50.300Z,1.73
2023-04-11T16:30:17.494Z,1.27
2023-04-11T16:32:45.304Z,1.60
2023-04-11T16:35:12.389Z,2.30
2023-04-11T16:37:39.390Z,2.20
2023-04-11T16:40:11.828Z,1.60
2023-04-11T16:42:40.493Z,1.50
2023-04-11T16:45:10.173Z,1.38
2023-04-11T16:47:37.404Z,1.50
2023-04-11T16:50:05.951Z,1.90
2023-04-11T16:52:33.212Z,1.40
2023-04-11T16:55:00.226Z,1.77
2023-04-11T16:57:27.596Z,1.90
2023-04-11T16:59:54.836Z,5.68
2023-04-11T17:02:22.252Z,4.63
2023-04-11T17:04:49.622Z,2.80
2023-04-11T17:07:18.052Z,2.88
2023-04-11T17:09:48.614Z,3.45
2023-04-11T17:14:42.794Z,2.33
2023-04-11T17:17:10.019Z,2.53
2023-04-11T17:19:37.312Z,2.70
2023-04-11T17:22:06.139Z,2.42
2023-04-11T17:24:33.460Z,3.40
2023-04-11T17:27:00.707Z,2.63
2023-04-11T17:29:27.990Z,2.60
2023-04-11T17:31:55.071Z,13.50
2023-04-11T17:34:22.141Z,5.53
2023-04-11T17:36:49.150Z,3.10
2023-04-11T17:39:19.737Z,2.78
2023-04-11T17:41:47.448Z,2.53
2023-04-11T17:44:14.594Z,2.63
2023-04-11T17:46:41.656Z,3.70
2023-04-11T17:49:08.894Z,3.35
2023-04-11T17:51:40.824Z,3.33
2023-04-11T17:54:10.511Z,3.70
2023-04-11T17:56:37.502Z,3.95
2023-04-11T17:59:04.599Z,3.75
2023-04-11T18:01:32.837Z,3.40
2023-04-11T18:04:01.674Z,3.55
2023-04-11T18:06:29.823Z,2.92
2023-04-11T18:08:56.996Z,2.70
2023-04-11T18:11:24.274Z,3.00
2023-04-11T18:13:51.329Z,3.60
2023-04-11T18:16:18.665Z,2.65
2023-04-11T18:18:47.755Z,2.72
2023-04-11T18:21:16.572Z,2.65
2023-04-11T18:23:43.744Z,3.10
2023-04-11T18:26:10.961Z,2.95
2023-04-11T18:28:38.123Z,3.88
2023-04-11T18:31:05.803Z,3.28
2023-04-11T18:33:33.419Z,4.13
2023-04-11T18:36:00.899Z,4.07
2023-04-11T18:38:28.017Z,3.63
2023-04-11T18:40:56.517Z,6.13
2023-04-11T18:43:25.030Z,4.05
2023-04-11T18:45:52.152Z,3.20
2023-04-11T18:48:19.367Z,5.32
2023-04-11T18:50:48.875Z,8.55
2023-04-11T18:53:16.542Z,3.57
2023-04-11T18:55:43.626Z,4.72
2023-04-11T18:58:14.735Z,6.05
2023-04-11T19:00:43.709Z,4.22
2023-04-11T19:03:15.696Z,4.57
2023-04-11T19:05:44.179Z,4.47
2023-04-11T19:08:11.355Z,4.30
2023-04-11T19:10:39.390Z,4.40
2023-04-11T19:13:06.778Z,13.10
2023-04-11T19:15:34.025Z,4.30
2023-04-11T19:18:02.075Z,3.95
2023-04-11T19:20:29.849Z,4.10
2023-04-11T19:22:57.281Z,3.95
2023-04-11T19:25:24.749Z,4.28
2023-04-11T19:27:51.945Z,5.32
2023-04-11T19:30:19.073Z,4.18
2023-04-11T19:32:47.939Z,4.40
2023-04-11T19:35:15.687Z,4.35
2023-04-11T19:37:43.157Z,3.83
2023-04-11T19:40:16.927Z,3.65
2023-04-11T19:42:45.569Z,3.50
2023-04-11T19:45:12.821Z,3.63
2023-04-11T19:47:41.114Z,3.67
2023-04-11T19:50:15.452Z,4.22
2023-04-11T19:52:43.317Z,4.13
2023-04-11T19:55:13.160Z,4.30
2023-04-11T19:57:41.626Z,4.70
2023-04-11T20:00:14.450Z,4.30
2023-04-11T20:02:47.686Z,4.50
2023-04-11T20:05:17.263Z,4.95
2023-04-11T20:07:45.507Z,4.65
2023-04-11T20:10:18.689Z,4.53
2023-04-11T20:12:48.512Z,5.25
2023-04-11T20:15:15.932Z,5.32
2023-04-11T20:17:45.411Z,5.57
2023-04-11T20:22:40.733Z,4.57
2023-04-11T20:25:11.652Z,4.93
2023-04-11T20:27:39.568Z,5.18
2023-04-11T20:30:10.674Z,5.53
2023-04-11T20:32:38.366Z,5.30
2023-04-11T20:35:05.966Z,5.38
2023-04-11T20:37:34.733Z,5.00
2023-04-11T20:40:02.544Z,5.30
2023-04-11T20:42:31.802Z,6.43
2023-04-11T20:45:07.386Z,7.93
2023-04-11T20:47:37.411Z,7.07
2023-04-11T20:50:10.507Z,6.53
2023-04-11T20:52:38.707Z,6.60
2023-04-11T20:55:06.307Z,7.60
2023-04-11T20:57:36.226Z,13.00
2023-04-11T21:00:15.213Z,9.02
2023-04-11T21:02:47.494Z,8.57
2023-04-11T21:05:15.594Z,8.55
2023-04-11T21:07:43.446Z,8.93
2023-04-11T21:10:12.343Z,9.13
2023-04-11T21:12:39.693Z,10.38
2023-04-11T21:15:07.558Z,10.82
2023-04-11T21:17:35.680Z,8.20
2023-04-11T21:20:18.046Z,9.48
2023-04-11T21:22:46.980Z,8.52
2023-04-11T21:25:14.528Z,8.32
2023-04-11T21:27:42.135Z,7.50
2023-04-11T21:30:10.344Z,8.55
2023-04-11T21:32:37.687Z,7.38
2023-04-11T21:35:11.544Z,7.75
2023-04-11T21:37:39.303Z,7.90
2023-04-11T21:40:07.208Z,8.02
2023-04-11T21:42:34.351Z,6.60
2023-04-11T21:45:01.486Z,7.63
2023-04-11T21:47:28.687Z,6.68
2023-04-11T21:49:55.813Z,6.47
2023-04-11T21:52:23.041Z,6.90
2023-04-11T21:54:50.163Z,6.15
2023-04-11T21:57:17.410Z,6.50
2023-04-11T21:59:45.155Z,7.30
2023-04-11T22:02:12.520Z,6.15
2023-04-11T22:04:51.725Z,6.10
2023-04-11T22:07:32.427Z,6.20
2023-04-11T22:10:09.300Z,5.35
2023-04-11T22:12:37.071Z,6.63
2023-04-11T22:15:05.528Z,6.43
2023-04-11T22:17:32.794Z,6.50
2023-04-11T22:20:00.164Z,5.60
2023-04-11T22:22:30.596Z,6.63
2023-04-11T22:27:27.935Z,5.13
2023-04-11T22:30:00.002Z,5.07
2023-04-11T22:32:27.445Z,5.53
2023-04-11T22:34:54.715Z,6.10
2023-04-11T22:37:53.907Z,6.30
2023-04-11T22:40:22.605Z,5.65
2023-04-11T22:42:53.376Z,6.22
2023-04-11T22:45:22.017Z,6.00
2023-04-11T22:47:54.543Z,5.80
2023-04-11T22:50:22.208Z,6.65
2023-04-11T22:52:50.320Z,5.90
2023-04-11T22:55:18.979Z,6.03
2023-04-11T22:57:46.552Z,5.97
2023-04-11T23:00:16.522Z,5.55
2023-04-11T23:02:44.282Z,6.28
2023-04-11T23:05:11.619Z,6.05
2023-04-11T23:07:39.044Z,5.22
2023-04-11T23:10:14.121Z,5.80
2023-04-11T23:12:45.236Z,5.63
2023-04-11T23:15:12.767Z,6.80
2023-04-11T23:17:40.425Z,5.15
2023-04-11T23:20:12.668Z,5.82
2023-04-11T23:22:42.457Z,6.40
2023-04-11T23:25:15.242Z,6.20
2023-04-11T23:27:43.873Z,6.35
2023-04-11T23:30:12.637Z,5.97
2023-04-11T23:32:40.254Z,7.40
2023-04-11T23:35:08.590Z,6.30
2023-04-11T23:37:35.825Z,6.68
2023-04-11T23:40:11.096Z,6.50
2023-04-11T23:42:38.892Z,5.63
2023-04-11T23:45:10.880Z,6.50
2023-04-11T23:47:38.660Z,5.68
2023-04-11T23:50:06.329Z,6.85
2023-04-11T23:52:34.431Z,7.32
2023-04-11T23:55:01.630Z,6.20
2023-04-11T23:57:28.934Z,6.97
2023-04-11T23:59:55.992Z,6.75
